sensor_id;sensor_type;location;lat;lon;timestamp;P1;durP1;ratioP1;P2;durP2;ratioP2
16506;SDS011;8366;51.020;7.642;2024-01-07T00:00:25;7.03;;;4.10;;
16506;SDS011;8366;51.020;7.642;2024-01-07T00:02:52;5.73;;;3.63;;
16506;SDS011;8366;51.020;7.642;2024-01-07T00:05:19;5.63;;;3.30;;
16506;SDS011;8366;51.020;7.642;2024-01-07T00:07:45;5.73;;;3.70;;
16506;SDS011;8366;51.020;7.642;2024-01-07T00:10:13;6.00;;;3.50;;
16506;SDS011;8366;51.020;7.642;2024-01-07T00:12:40;3.97;;;2.83;;
16506;SDS011;8366;51.020;7.642;2024-01-07T00:15:07;5.13;;;3.27;;
16506;SDS011;8366;51.020;7.642;2024-01-07T00:17:34;5.13;;;2.80;;
16506;SDS011;8366;51.020;7.642;2024-01-07T00:20:01;4.37;;;2.90;;
16506;SDS011;8366;51.020;7.642;2024-01-07T00:22:28;4.73;;;3.27;;
16506;SDS011;8366;51.020;7.642;2024-01-07T00:24:55;4.60;;;2.97;;
16506;SDS011;8366;51.020;7.642;2024-01-07T00:27:22;4.87;;;2.70;;
16506;SDS011;8366;51.020;7.642;2024-01-07T00:29:48;4.90;;;2.70;;
16506;SDS011;8366;51.020;7.642;2024-01-07T00:32:15;3.77;;;2.53;;
16506;SDS011;8366;51.020;7.642;2024-01-07T00:34:41;3.63;;;2.60;;
16506;SDS011;8366;51.020;7.642;2024-01-07T00:37:09;4.53;;;2.60;;
16506;SDS011;8366;51.020;7.642;2024-01-07T00:39:36;3.80;;;2.73;;
16506;SDS011;8366;51.020;7.642;2024-01-07T00:42:07;4.20;;;2.80;;
16506;SDS011;8366;51.020;7.642;2024-01-07T00:44:33;4.43;;;2.70;;
16506;SDS011;8366;51.020;7.642;2024-01-07T00:47:00;3.40;;;2.47;;
16506;SDS011;8366;51.020;7.642;2024-01-07T00:49:26;3.23;;;2.53;;
16506;SDS011;8366;51.020;7.642;2024-01-07T00:51:53;5.53;;;2.77;;
16506;SDS011;8366;51.020;7.642;2024-01-07T00:54:20;3.90;;;2.90;;
16506;SDS011;8366;51.020;7.642;2024-01-07T00:56:47;4.90;;;3.33;;
16506;SDS011;8366;51.020;7.642;2024-01-07T00:59:14;5.60;;;3.57;;
16506;SDS011;8366;51.020;7.642;2024-01-07T01:01:40;4.97;;;3.13;;
16506;SDS011;8366;51.020;7.642;2024-01-07T01:04:07;4.30;;;3.40;;
16506;SDS011;8366;51.020;7.642;2024-01-07T01:06:33;6.13;;;3.40;;
16506;SDS011;8366;51.020;7.642;2024-01-07T01:09:00;6.53;;;3.73;;
16506;SDS011;8366;51.020;7.642;2024-01-07T01:11:30;4.87;;;3.50;;
16506;SDS011;8366;51.020;7.642;2024-01-07T01:13:57;5.27;;;3.77;;
16506;SDS011;8366;51.020;7.642;2024-01-07T01:16:23;5.63;;;3.70;;
16506;SDS011;8366;51.020;7.642;2024-01-07T01:18:50;5.77;;;3.93;;
16506;SDS011;8366;51.020;7.642;2024-01-07T01:21:16;4.33;;;3.73;;
16506;SDS011;8366;51.020;7.642;2024-01-07T01:23:44;4.93;;;3.47;;
16506;SDS011;8366;51.020;7.642;2024-01-07T01:26:10;4.90;;;3.77;;
16506;SDS011;8366;51.020;7.642;2024-01-07T01:28:41;4.20;;;3.30;;
16506;SDS011;8366;51.020;7.642;2024-01-07T01:31:08;5.70;;;3.90;;
16506;SDS011;8366;51.020;7.642;2024-01-07T01:33:34;7.43;;;4.20;;
16506;SDS011;8366;51.020;7.642;2024-01-07T01:36:04;7.10;;;4.87;;
16506;SDS011;8366;51.020;7.642;2024-01-07T01:38:31;7.53;;;4.33;;
16506;SDS011;8366;51.020;7.642;2024-01-07T01:40:57;6.27;;;4.40;;
16506;SDS011;8366;51.020;7.642;2024-01-07T01:43:24;6.70;;;4.60;;
16506;SDS011;8366;51.020;7.642;2024-01-07T01:45:52;11.50;;;6.77;;
16506;SDS011;8366;51.020;7.642;2024-01-07T01:48:18;7.10;;;4.73;;
16506;SDS011;8366;51.020;7.642;2024-01-07T01:50:45;7.80;;;4.87;;
16506;SDS011;8366;51.020;7.642;2024-01-07T01:53:13;6.60;;;4.33;;
16506;SDS011;8366;51.020;7.642;2024-01-07T01:55:40;6.13;;;4.20;;
16506;SDS011;8366;51.020;7.642;2024-01-07T01:58:06;6.57;;;4.60;;
16506;SDS011;8366;51.020;7.642;2024-01-07T02:00:35;8.00;;;4.83;;
16506;SDS011;8366;51.020;7.642;2024-01-07T02:03:04;6.57;;;4.57;;
16506;SDS011;8366;51.020;7.642;2024-01-07T02:05:30;7.20;;;4.60;;
16506;SDS011;8366;51.020;7.642;2024-01-07T02:07:57;7.87;;;4.93;;
16506;SDS011;8366;51.020;7.642;2024-01-07T02:10:24;8.83;;;5.00;;
16506;SDS011;8366;51.020;7.642;2024-01-07T02:12:51;7.90;;;4.93;;
16506;SDS011;8366;51.020;7.642;2024-01-07T02:15:17;6.63;;;4.47;;
16506;SDS011;8366;51.020;7.642;2024-01-07T02:17:44;7.13;;;4.50;;
16506;SDS011;8366;51.020;7.642;2024-01-07T02:20:11;7.27;;;4.47;;
16506;SDS011;8366;51.020;7.642;2024-01-07T02:22:38;6.67;;;4.60;;
16506;SDS011;8366;51.020;7.642;2024-01-07T02:25:06;6.30;;;4.20;;
16506;SDS011;8366;51.020;7.642;2024-01-07T02:27:33;6.23;;;4.67;;
16506;SDS011;8366;51.020;7.642;2024-01-07T02:30:00;6.30;;;4.30;;
16506;SDS011;8366;51.020;7.642;2024-01-07T02:32:27;6.37;;;4.33;;
16506;SDS011;8366;51.020;7.642;2024-01-07T02:34:53;5.83;;;4.20;;
16506;SDS011;8366;51.020;7.642;2024-01-07T02:37:19;5.93;;;4.17;;
16506;SDS011;8366;51.020;7.642;2024-01-07T02:39:46;6.53;;;4.13;;
16506;SDS011;8366;51.020;7.642;2024-01-07T02:42:14;7.03;;;4.43;;
16506;SDS011;8366;51.020;7.642;2024-01-07T02:44:40;5.67;;;3.97;;
16506;SDS011;8366;51.020;7.642;2024-01-07T02:47:07;6.07;;;4.10;;
16506;SDS011;8366;51.020;7.642;2024-01-07T02:49:33;5.73;;;3.83;;
16506;SDS011;8366;51.020;7.642;2024-01-07T02:52:00;5.73;;;4.27;;
16506;SDS011;8366;51.020;7.642;2024-01-07T02:54:26;6.93;;;4.53;;
16506;SDS011;8366;51.020;7.642;2024-01-07T02:56:52;6.07;;;4.47;;
16506;SDS011;8366;51.020;7.642;2024-01-07T02:59:20;5.37;;;3.53;;
16506;SDS011;8366;51.020;7.642;2024-01-07T03:01:46;5.73;;;4.13;;
16506;SDS011;8366;51.020;7.642;2024-01-07T03:04:13;5.67;;;4.30;;
16506;SDS011;8366;51.020;7.642;2024-01-07T03:06:41;6.20;;;4.07;;
16506;SDS011;8366;51.020;7.642;2024-01-07T03:09:07;6.27;;;4.10;;
16506;SDS011;8366;51.020;7.642;2024-01-07T03:11:38;6.03;;;3.87;;
16506;SDS011;8366;51.020;7.642;2024-01-07T03:14:05;6.60;;;4.30;;
16506;SDS011;8366;51.020;7.642;2024-01-07T03:16:33;6.77;;;4.57;;
16506;SDS011;8366;51.020;7.642;2024-01-07T03:18:59;6.17;;;4.03;;
16506;SDS011;8366;51.020;7.642;2024-01-07T03:21:27;6.13;;;4.53;;
16506;SDS011;8366;51.020;7.642;2024-01-07T03:23:53;7.63;;;4.93;;
16506;SDS011;8366;51.020;7.642;2024-01-07T03:26:20;7.33;;;4.63;;
16506;SDS011;8366;51.020;7.642;2024-01-07T03:28:46;8.20;;;4.97;;
16506;SDS011;8366;51.020;7.642;2024-01-07T03:31:13;9.47;;;5.13;;
16506;SDS011;8366;51.020;7.642;2024-01-07T03:33:42;8.10;;;5.50;;
16506;SDS011;8366;51.020;7.642;2024-01-07T03:36:10;10.13;;;5.63;;
16506;SDS011;8366;51.020;7.642;2024-01-07T03:38:37;7.83;;;5.60;;
16506;SDS011;8366;51.020;7.642;2024-01-07T03:41:04;8.93;;;5.47;;
16506;SDS011;8366;51.020;7.642;2024-01-07T03:43:31;8.53;;;5.80;;
16506;SDS011;8366;51.020;7.642;2024-01-07T03:45:57;8.63;;;5.87;;
16506;SDS011;8366;51.020;7.642;2024-01-07T03:48:24;9.63;;;5.60;;
16506;SDS011;8366;51.020;7.642;2024-01-07T03:50:52;9.47;;;5.87;;
16506;SDS011;8366;51.020;7.642;2024-01-07T03:53:19;8.63;;;5.77;;
16506;SDS011;8366;51.020;7.642;2024-01-07T03:55:45;11.37;;;6.40;;
16506;SDS011;8366;51.020;7.642;2024-01-07T03:58:12;9.33;;;6.00;;
16506;SDS011;8366;51.020;7.642;2024-01-07T04:00:39;9.53;;;5.70;;
16506;SDS011;8366;51.020;7.642;2024-01-07T04:03:05;9.50;;;6.00;;
16506;SDS011;8366;51.020;7.642;2024-01-07T04:05:32;7.63;;;5.20;;
16506;SDS011;8366;51.020;7.642;2024-01-07T04:08:00;10.23;;;6.03;;
16506;SDS011;8366;51.020;7.642;2024-01-07T04:10:27;10.77;;;5.93;;
16506;SDS011;8366;51.020;7.642;2024-01-07T04:12:53;9.87;;;5.67;;
16506;SDS011;8366;51.020;7.642;2024-01-07T04:15:20;11.27;;;6.10;;
16506;SDS011;8366;51.020;7.642;2024-01-07T04:17:46;9.87;;;6.53;;
16506;SDS011;8366;51.020;7.642;2024-01-07T04:20:13;11.23;;;6.40;;
16506;SDS011;8366;51.020;7.642;2024-01-07T04:22:40;8.67;;;5.87;;
16506;SDS011;8366;51.020;7.642;2024-01-07T04:25:08;11.60;;;6.13;;
16506;SDS011;8366;51.020;7.642;2024-01-07T04:27:35;11.60;;;6.67;;
16506;SDS011;8366;51.020;7.642;2024-01-07T04:30:02;9.67;;;6.17;;
16506;SDS011;8366;51.020;7.642;2024-01-07T04:32:30;11.07;;;6.40;;
16506;SDS011;8366;51.020;7.642;2024-01-07T04:34:56;11.53;;;6.97;;
16506;SDS011;8366;51.020;7.642;2024-01-07T04:37:23;10.00;;;6.40;;
16506;SDS011;8366;51.020;7.642;2024-01-07T04:39:50;10.80;;;6.80;;
16506;SDS011;8366;51.020;7.642;2024-01-07T04:42:17;11.67;;;7.27;;
16506;SDS011;8366;51.020;7.642;2024-01-07T04:44:44;10.70;;;6.83;;
16506;SDS011;8366;51.020;7.642;2024-01-07T04:47:24;12.53;;;7.50;;
16506;SDS011;8366;51.020;7.642;2024-01-07T04:49:52;11.47;;;7.30;;
16506;SDS011;8366;51.020;7.642;2024-01-07T04:52:19;11.67;;;7.00;;
16506;SDS011;8366;51.020;7.642;2024-01-07T04:54:45;12.33;;;6.93;;
16506;SDS011;8366;51.020;7.642;2024-01-07T04:57:11;10.90;;;6.70;;
16506;SDS011;8366;51.020;7.642;2024-01-07T04:59:39;10.57;;;7.23;;
16506;SDS011;8366;51.020;7.642;2024-01-07T05:02:06;10.53;;;6.27;;
16506;SDS011;8366;51.020;7.642;2024-01-07T05:04:32;10.10;;;6.37;;
16506;SDS011;8366;51.020;7.642;2024-01-07T05:06:59;9.80;;;6.07;;
16506;SDS011;8366;51.020;7.642;2024-01-07T05:09:25;10.07;;;6.40;;
16506;SDS011;8366;51.020;7.642;2024-01-07T05:11:52;9.23;;;6.40;;
16506;SDS011;8366;51.020;7.642;2024-01-07T05:14:18;10.27;;;6.40;;
16506;SDS011;8366;51.020;7.642;2024-01-07T05:16:46;10.53;;;6.87;;
16506;SDS011;8366;51.020;7.642;2024-01-07T05:19:13;11.23;;;7.43;;
16506;SDS011;8366;51.020;7.642;2024-01-07T05:21:39;13.17;;;7.20;;
16506;SDS011;8366;51.020;7.642;2024-01-07T05:24:06;10.67;;;6.60;;
16506;SDS011;8366;51.020;7.642;2024-01-07T05:26:37;11.43;;;7.00;;
16506;SDS011;8366;51.020;7.642;2024-01-07T05:29:05;11.70;;;6.83;;
16506;SDS011;8366;51.020;7.642;2024-01-07T05:31:31;11.13;;;7.30;;
16506;SDS011;8366;51.020;7.642;2024-01-07T05:33:59;10.87;;;7.03;;
16506;SDS011;8366;51.020;7.642;2024-01-07T05:36:25;10.63;;;7.13;;
16506;SDS011;8366;51.020;7.642;2024-01-07T05:38:52;11.70;;;6.70;;
16506;SDS011;8366;51.020;7.642;2024-01-07T05:41:18;9.00;;;6.53;;
16506;SDS011;8366;51.020;7.642;2024-01-07T05:43:45;10.17;;;6.50;;
16506;SDS011;8366;51.020;7.642;2024-01-07T05:46:12;11.53;;;6.90;;
16506;SDS011;8366;51.020;7.642;2024-01-07T05:48:41;11.50;;;6.70;;
16506;SDS011;8366;51.020;7.642;2024-01-07T05:51:10;12.00;;;7.03;;
16506;SDS011;8366;51.020;7.642;2024-01-07T05:53:37;11.80;;;7.80;;
16506;SDS011;8366;51.020;7.642;2024-01-07T05:56:04;13.23;;;7.73;;
16506;SDS011;8366;51.020;7.642;2024-01-07T05:58:30;12.60;;;7.47;;
16506;SDS011;8366;51.020;7.642;2024-01-07T06:00:57;13.20;;;7.80;;
16506;SDS011;8366;51.020;7.642;2024-01-07T06:03:24;12.30;;;7.43;;
16506;SDS011;8366;51.020;7.642;2024-01-07T06:05:50;13.70;;;8.27;;
16506;SDS011;8366;51.020;7.642;2024-01-07T06:08:18;11.73;;;7.50;;
16506;SDS011;8366;51.020;7.642;2024-01-07T06:10:45;12.00;;;7.97;;
16506;SDS011;8366;51.020;7.642;2024-01-07T06:13:11;14.37;;;7.70;;
16506;SDS011;8366;51.020;7.642;2024-01-07T06:15:38;15.10;;;8.20;;
16506;SDS011;8366;51.020;7.642;2024-01-07T06:18:04;14.00;;;8.47;;
16506;SDS011;8366;51.020;7.642;2024-01-07T06:20:31;13.30;;;8.47;;
16506;SDS011;8366;51.020;7.642;2024-01-07T06:22:57;13.77;;;8.20;;
16506;SDS011;8366;51.020;7.642;2024-01-07T06:25:25;14.33;;;8.47;;
16506;SDS011;8366;51.020;7.642;2024-01-07T06:27:52;12.53;;;8.27;;
16506;SDS011;8366;51.020;7.642;2024-01-07T06:30:18;14.57;;;8.47;;
16506;SDS011;8366;51.020;7.642;2024-01-07T06:32:45;12.77;;;8.30;;
16506;SDS011;8366;51.020;7.642;2024-01-07T06:35:13;12.53;;;8.07;;
16506;SDS011;8366;51.020;7.642;2024-01-07T06:37:39;13.13;;;8.53;;
16506;SDS011;8366;51.020;7.642;2024-01-07T06:40:06;14.70;;;8.57;;
16506;SDS011;8366;51.020;7.642;2024-01-07T06:42:35;11.73;;;7.47;;
16506;SDS011;8366;51.020;7.642;2024-01-07T06:45:02;10.83;;;7.13;;
16506;SDS011;8366;51.020;7.642;2024-01-07T06:47:28;11.40;;;7.57;;
16506;SDS011;8366;51.020;7.642;2024-01-07T06:49:55;14.23;;;7.83;;
16506;SDS011;8366;51.020;7.642;2024-01-07T06:52:21;11.63;;;7.87;;
16506;SDS011;8366;51.020;7.642;2024-01-07T06:54:48;12.03;;;8.67;;
16506;SDS011;8366;51.020;7.642;2024-01-07T06:57:14;11.37;;;7.77;;
16506;SDS011;8366;51.020;7.642;2024-01-07T06:59:42;13.13;;;7.87;;
16506;SDS011;8366;51.020;7.642;2024-01-07T07:02:08;12.47;;;8.17;;
16506;SDS011;8366;51.020;7.642;2024-01-07T07:04:35;12.60;;;7.80;;
16506;SDS011;8366;51.020;7.642;2024-01-07T07:07:02;15.20;;;9.20;;
16506;SDS011;8366;51.020;7.642;2024-01-07T07:09:28;14.23;;;8.63;;
16506;SDS011;8366;51.020;7.642;2024-01-07T07:11:55;12.67;;;8.47;;
16506;SDS011;8366;51.020;7.642;2024-01-07T07:14:21;14.00;;;8.67;;
16506;SDS011;8366;51.020;7.642;2024-01-07T07:16:50;13.47;;;8.77;;
16506;SDS011;8366;51.020;7.642;2024-01-07T07:19:16;14.77;;;9.40;;
16506;SDS011;8366;51.020;7.642;2024-01-07T07:21:43;15.00;;;8.73;;
16506;SDS011;8366;51.020;7.642;2024-01-07T07:24:10;14.23;;;9.17;;
16506;SDS011;8366;51.020;7.642;2024-01-07T07:26:36;14.07;;;9.07;;
16506;SDS011;8366;51.020;7.642;2024-01-07T07:29:06;13.80;;;8.33;;
16506;SDS011;8366;51.020;7.642;2024-01-07T07:31:34;13.33;;;9.27;;
16506;SDS011;8366;51.020;7.642;2024-01-07T07:34:02;15.83;;;9.87;;
16506;SDS011;8366;51.020;7.642;2024-01-07T07:36:29;13.40;;;8.73;;
16506;SDS011;8366;51.020;7.642;2024-01-07T07:38:55;13.50;;;9.03;;
16506;SDS011;8366;51.020;7.642;2024-01-07T07:41:22;16.27;;;9.00;;
16506;SDS011;8366;51.020;7.642;2024-01-07T07:43:48;14.23;;;9.50;;
16506;SDS011;8366;51.020;7.642;2024-01-07T07:46:15;13.97;;;8.90;;
16506;SDS011;8366;51.020;7.642;2024-01-07T07:48:42;16.00;;;8.97;;
16506;SDS011;8366;51.020;7.642;2024-01-07T07:51:09;13.37;;;8.80;;
16506;SDS011;8366;51.020;7.642;2024-01-07T07:53:37;13.80;;;9.03;;
16506;SDS011;8366;51.020;7.642;2024-01-07T07:56:04;13.63;;;8.50;;
16506;SDS011;8366;51.020;7.642;2024-01-07T07:58:31;15.93;;;8.87;;
16506;SDS011;8366;51.020;7.642;2024-01-07T08:00:58;14.13;;;9.43;;
16506;SDS011;8366;51.020;7.642;2024-01-07T08:03:24;16.27;;;9.87;;
16506;SDS011;8366;51.020;7.642;2024-01-07T08:05:52;16.47;;;9.40;;
16506;SDS011;8366;51.020;7.642;2024-01-07T08:08:20;14.93;;;9.40;;
16506;SDS011;8366;51.020;7.642;2024-01-07T08:10:46;13.63;;;9.17;;
16506;SDS011;8366;51.020;7.642;2024-01-07T08:13:13;17.17;;;10.07;;
16506;SDS011;8366;51.020;7.642;2024-01-07T08:15:39;13.90;;;8.53;;
16506;SDS011;8366;51.020;7.642;2024-01-07T08:18:06;15.13;;;8.90;;
16506;SDS011;8366;51.020;7.642;2024-01-07T08:20:33;15.93;;;10.23;;
16506;SDS011;8366;51.020;7.642;2024-01-07T08:22:59;17.83;;;10.67;;
16506;SDS011;8366;51.020;7.642;2024-01-07T08:25:27;14.10;;;9.37;;
16506;SDS011;8366;51.020;7.642;2024-01-07T08:27:53;15.80;;;9.27;;
16506;SDS011;8366;51.020;7.642;2024-01-07T08:30:20;14.50;;;8.77;;
16506;SDS011;8366;51.020;7.642;2024-01-07T08:32:46;15.73;;;10.23;;
16506;SDS011;8366;51.020;7.642;2024-01-07T08:35:13;16.10;;;10.00;;
16506;SDS011;8366;51.020;7.642;2024-01-07T08:37:39;14.97;;;9.50;;
16506;SDS011;8366;51.020;7.642;2024-01-07T08:40:09;13.67;;;8.83;;
16506;SDS011;8366;51.020;7.642;2024-01-07T08:42:38;13.83;;;9.60;;
16506;SDS011;8366;51.020;7.642;2024-01-07T08:45:05;13.80;;;9.10;;
16506;SDS011;8366;51.020;7.642;2024-01-07T08:47:32;14.00;;;9.20;;
16506;SDS011;8366;51.020;7.642;2024-01-07T08:50:01;13.57;;;9.20;;
16506;SDS011;8366;51.020;7.642;2024-01-07T08:52:28;15.50;;;9.13;;
16506;SDS011;8366;51.020;7.642;2024-01-07T08:54:54;13.73;;;9.10;;
16506;SDS011;8366;51.020;7.642;2024-01-07T08:57:21;11.87;;;8.43;;
16506;SDS011;8366;51.020;7.642;2024-01-07T08:59:49;10.67;;;7.57;;
16506;SDS011;8366;51.020;7.642;2024-01-07T09:02:15;10.07;;;7.27;;
16506;SDS011;8366;51.020;7.642;2024-01-07T09:04:42;9.93;;;7.27;;
16506;SDS011;8366;51.020;7.642;2024-01-07T09:07:08;11.37;;;7.07;;
16506;SDS011;8366;51.020;7.642;2024-01-07T09:09:35;9.70;;;7.17;;
16506;SDS011;8366;51.020;7.642;2024-01-07T09:12:02;8.87;;;7.20;;
16506;SDS011;8366;51.020;7.642;2024-01-07T09:14:29;10.70;;;7.17;;
16506;SDS011;8366;51.020;7.642;2024-01-07T09:16:57;12.30;;;8.30;;
16506;SDS011;8366;51.020;7.642;2024-01-07T09:19:24;11.57;;;7.27;;
16506;SDS011;8366;51.020;7.642;2024-01-07T09:21:50;10.60;;;6.67;;
16506;SDS011;8366;51.020;7.642;2024-01-07T09:24:17;10.33;;;7.50;;
16506;SDS011;8366;51.020;7.642;2024-01-07T09:26:44;8.80;;;7.30;;
16506;SDS011;8366;51.020;7.642;2024-01-07T09:29:11;9.43;;;7.00;;
16506;SDS011;8366;51.020;7.642;2024-01-07T09:31:38;9.57;;;7.10;;
16506;SDS011;8366;51.020;7.642;2024-01-07T09:34:06;9.27;;;7.30;;
16506;SDS011;8366;51.020;7.642;2024-01-07T09:36:33;6.67;;;5.23;;
16506;SDS011;8366;51.020;7.642;2024-01-07T09:39:00;8.77;;;6.03;;
16506;SDS011;8366;51.020;7.642;2024-01-07T09:41:29;9.70;;;7.10;;
16506;SDS011;8366;51.020;7.642;2024-01-07T09:43:56;8.57;;;6.60;;
16506;SDS011;8366;51.020;7.642;2024-01-07T09:46:24;8.60;;;6.33;;
16506;SDS011;8366;51.020;7.642;2024-01-07T09:48:50;8.73;;;6.50;;
16506;SDS011;8366;51.020;7.642;2024-01-07T09:51:19;9.67;;;6.57;;
16506;SDS011;8366;51.020;7.642;2024-01-07T09:53:48;9.90;;;7.50;;
16506;SDS011;8366;51.020;7.642;2024-01-07T09:56:17;8.83;;;7.10;;
16506;SDS011;8366;51.020;7.642;2024-01-07T09:58:46;10.30;;;7.00;;
16506;SDS011;8366;51.020;7.642;2024-01-07T10:01:15;10.93;;;7.70;;
16506;SDS011;8366;51.020;7.642;2024-01-07T10:03:41;10.00;;;7.50;;
16506;SDS011;8366;51.020;7.642;2024-01-07T10:06:08;11.87;;;8.23;;
16506;SDS011;8366;51.020;7.642;2024-01-07T10:08:38;11.23;;;7.87;;
16506;SDS011;8366;51.020;7.642;2024-01-07T10:11:04;10.50;;;7.70;;
16506;SDS011;8366;51.020;7.642;2024-01-07T10:13:34;10.50;;;7.73;;
16506;SDS011;8366;51.020;7.642;2024-01-07T10:16:01;10.87;;;7.83;;
16506;SDS011;8366;51.020;7.642;2024-01-07T10:18:27;11.23;;;7.93;;
16506;SDS011;8366;51.020;7.642;2024-01-07T10:20:56;9.93;;;7.83;;
16506;SDS011;8366;51.020;7.642;2024-01-07T10:23:28;12.83;;;8.30;;
16506;SDS011;8366;51.020;7.642;2024-01-07T10:25:56;12.13;;;8.37;;
16506;SDS011;8366;51.020;7.642;2024-01-07T10:28:23;11.87;;;8.60;;
16506;SDS011;8366;51.020;7.642;2024-01-07T10:30:50;11.93;;;9.13;;
16506;SDS011;8366;51.020;7.642;2024-01-07T10:33:17;12.97;;;8.77;;
16506;SDS011;8366;51.020;7.642;2024-01-07T10:35:46;13.33;;;9.13;;
16506;SDS011;8366;51.020;7.642;2024-01-07T10:38:17;13.37;;;9.17;;
16506;SDS011;8366;51.020;7.642;2024-01-07T10:40:44;12.80;;;9.07;;
16506;SDS011;8366;51.020;7.642;2024-01-07T10:43:14;13.47;;;9.50;;
16506;SDS011;8366;51.020;7.642;2024-01-07T10:45:41;13.80;;;9.23;;
16506;SDS011;8366;51.020;7.642;2024-01-07T10:48:13;13.40;;;9.47;;
16506;SDS011;8366;51.020;7.642;2024-01-07T10:50:44;10.43;;;7.67;;
16506;SDS011;8366;51.020;7.642;2024-01-07T10:53:13;10.53;;;8.30;;
16506;SDS011;8366;51.020;7.642;2024-01-07T10:55:40;12.50;;;8.50;;
16506;SDS011;8366;51.020;7.642;2024-01-07T10:58:09;12.27;;;9.40;;
16506;SDS011;8366;51.020;7.642;2024-01-07T11:00:38;10.87;;;8.13;;
16506;SDS011;8366;51.020;7.642;2024-01-07T11:03:07;11.50;;;8.13;;
16506;SDS011;8366;51.020;7.642;2024-01-07T11:05:38;10.53;;;8.87;;
16506;SDS011;8366;51.020;7.642;2024-01-07T11:08:08;12.47;;;8.40;;
16506;SDS011;8366;51.020;7.642;2024-01-07T11:10:41;11.50;;;8.17;;
16506;SDS011;8366;51.020;7.642;2024-01-07T11:13:11;13.30;;;9.00;;
16506;SDS011;8366;51.020;7.642;2024-01-07T11:15:59;13.73;;;8.03;;
16506;SDS011;8366;51.020;7.642;2024-01-07T11:18:26;11.03;;;7.87;;
16506;SDS011;8366;51.020;7.642;2024-01-07T11:20:57;10.73;;;8.10;;
16506;SDS011;8366;51.020;7.642;2024-01-07T11:23:28;10.63;;;7.60;;
16506;SDS011;8366;51.020;7.642;2024-01-07T11:25:56;11.03;;;7.87;;
16506;SDS011;8366;51.020;7.642;2024-01-07T11:28:42;11.90;;;8.17;;
16506;SDS011;8366;51.020;7.642;2024-01-07T11:31:13;11.83;;;8.33;;
16506;SDS011;8366;51.020;7.642;2024-01-07T11:33:41;11.23;;;8.33;;
16506;SDS011;8366;51.020;7.642;2024-01-07T11:36:08;10.13;;;7.23;;
16506;SDS011;8366;51.020;7.642;2024-01-07T11:38:37;11.87;;;8.00;;
16506;SDS011;8366;51.020;7.642;2024-01-07T11:41:04;10.27;;;7.27;;
16506;SDS011;8366;51.020;7.642;2024-01-07T11:43:32;10.87;;;7.90;;
16506;SDS011;8366;51.020;7.642;2024-01-07T11:45:59;10.33;;;7.10;;
16506;SDS011;8366;51.020;7.642;2024-01-07T11:48:27;10.90;;;8.20;;
16506;SDS011;8366;51.020;7.642;2024-01-07T11:50:54;11.57;;;8.10;;
16506;SDS011;8366;51.020;7.642;2024-01-07T11:53:20;12.27;;;8.40;;
16506;SDS011;8366;51.020;7.642;2024-01-07T11:55:47;11.57;;;7.70;;
16506;SDS011;8366;51.020;7.642;2024-01-07T11:58:14;11.97;;;7.37;;
16506;SDS011;8366;51.020;7.642;2024-01-07T12:00:40;12.97;;;8.37;;
16506;SDS011;8366;51.020;7.642;2024-01-07T12:03:07;12.37;;;8.07;;
16506;SDS011;8366;51.020;7.642;2024-01-07T12:05:35;11.87;;;8.50;;
16506;SDS011;8366;51.020;7.642;2024-01-07T12:08:02;14.00;;;7.80;;
16506;SDS011;8366;51.020;7.642;2024-01-07T12:10:28;13.17;;;7.37;;
16506;SDS011;8366;51.020;7.642;2024-01-07T12:12:55;11.20;;;7.70;;
16506;SDS011;8366;51.020;7.642;2024-01-07T12:15:22;11.83;;;8.33;;
16506;SDS011;8366;51.020;7.642;2024-01-07T12:17:54;10.73;;;7.70;;
16506;SDS011;8366;51.020;7.642;2024-01-07T12:20:22;13.57;;;9.77;;
16506;SDS011;8366;51.020;7.642;2024-01-07T12:22:50;10.97;;;7.00;;
16506;SDS011;8366;51.020;7.642;2024-01-07T12:25:20;10.03;;;6.27;;
16506;SDS011;8366;51.020;7.642;2024-01-07T12:27:47;9.23;;;6.77;;
16506;SDS011;8366;51.020;7.642;2024-01-07T12:30:17;10.73;;;6.57;;
16506;SDS011;8366;51.020;7.642;2024-01-07T12:32:44;11.13;;;6.03;;
16506;SDS011;8366;51.020;7.642;2024-01-07T12:35:10;10.53;;;6.67;;
16506;SDS011;8366;51.020;7.642;2024-01-07T12:37:36;11.07;;;6.53;;
16506;SDS011;8366;51.020;7.642;2024-01-07T12:40:05;9.87;;;6.00;;
16506;SDS011;8366;51.020;7.642;2024-01-07T12:42:35;9.43;;;5.97;;
16506;SDS011;8366;51.020;7.642;2024-01-07T12:45:02;10.53;;;6.80;;
16506;SDS011;8366;51.020;7.642;2024-01-07T12:47:29;6.33;;;4.70;;
16506;SDS011;8366;51.020;7.642;2024-01-07T12:49:56;10.63;;;5.70;;
16506;SDS011;8366;51.020;7.642;2024-01-07T12:52:23;9.00;;;5.57;;
16506;SDS011;8366;51.020;7.642;2024-01-07T12:54:50;7.23;;;4.83;;
16506;SDS011;8366;51.020;7.642;2024-01-07T12:57:18;7.93;;;4.87;;
16506;SDS011;8366;51.020;7.642;2024-01-07T12:59:45;7.50;;;4.77;;
16506;SDS011;8366;51.020;7.642;2024-01-07T13:02:12;7.10;;;4.33;;
16506;SDS011;8366;51.020;7.642;2024-01-07T13:04:38;8.17;;;4.60;;
16506;SDS011;8366;51.020;7.642;2024-01-07T13:07:05;6.53;;;3.47;;
16506;SDS011;8366;51.020;7.642;2024-01-07T13:09:31;8.97;;;4.67;;
16506;SDS011;8366;51.020;7.642;2024-01-07T13:11:58;5.67;;;4.13;;
16506;SDS011;8366;51.020;7.642;2024-01-07T13:14:26;5.90;;;3.80;;
16506;SDS011;8366;51.020;7.642;2024-01-07T13:16:53;6.40;;;3.80;;
16506;SDS011;8366;51.020;7.642;2024-01-07T13:19:20;8.43;;;4.73;;
16506;SDS011;8366;51.020;7.642;2024-01-07T13:21:46;6.17;;;4.07;;
16506;SDS011;8366;51.020;7.642;2024-01-07T13:24:13;6.53;;;3.70;;
16506;SDS011;8366;51.020;7.642;2024-01-07T13:26:40;5.53;;;4.10;;
16506;SDS011;8366;51.020;7.642;2024-01-07T13:29:07;4.67;;;3.60;;
16506;SDS011;8366;51.020;7.642;2024-01-07T13:31:35;6.17;;;4.17;;
16506;SDS011;8366;51.020;7.642;2024-01-07T13:34:01;6.63;;;4.23;;
16506;SDS011;8366;51.020;7.642;2024-01-07T13:36:28;5.47;;;3.47;;
16506;SDS011;8366;51.020;7.642;2024-01-07T13:38:55;3.80;;;2.73;;
16506;SDS011;8366;51.020;7.642;2024-01-07T13:41:21;5.23;;;3.93;;
16506;SDS011;8366;51.020;7.642;2024-01-07T13:43:49;5.70;;;3.67;;
16506;SDS011;8366;51.020;7.642;2024-01-07T13:46:16;4.40;;;3.50;;
16506;SDS011;8366;51.020;7.642;2024-01-07T13:48:46;5.07;;;3.70;;
16506;SDS011;8366;51.020;7.642;2024-01-07T13:51:12;6.37;;;4.00;;
16506;SDS011;8366;51.020;7.642;2024-01-07T13:53:39;4.70;;;3.43;;
16506;SDS011;8366;51.020;7.642;2024-01-07T13:56:06;5.67;;;2.87;;
16506;SDS011;8366;51.020;7.642;2024-01-07T13:58:32;4.30;;;2.97;;
16506;SDS011;8366;51.020;7.642;2024-01-07T14:00:59;4.70;;;3.60;;
16506;SDS011;8366;51.020;7.642;2024-01-07T14:03:25;4.77;;;3.13;;
16506;SDS011;8366;51.020;7.642;2024-01-07T14:05:53;4.30;;;3.40;;
16506;SDS011;8366;51.020;7.642;2024-01-07T14:08:20;5.40;;;3.67;;
16506;SDS011;8366;51.020;7.642;2024-01-07T14:10:47;16.60;;;9.73;;
16506;SDS011;8366;51.020;7.642;2024-01-07T14:13:14;10.00;;;5.70;;
16506;SDS011;8366;51.020;7.642;2024-01-07T14:15:41;9.73;;;5.17;;
16506;SDS011;8366;51.020;7.642;2024-01-07T14:18:08;12.53;;;7.67;;
16506;SDS011;8366;51.020;7.642;2024-01-07T14:20:40;4.07;;;3.67;;
16506;SDS011;8366;51.020;7.642;2024-01-07T14:23:08;3.17;;;2.60;;
16506;SDS011;8366;51.020;7.642;2024-01-07T14:25:35;5.37;;;2.97;;
16506;SDS011;8366;51.020;7.642;2024-01-07T14:28:02;5.30;;;3.47;;
16506;SDS011;8366;51.020;7.642;2024-01-07T14:30:29;2.93;;;2.40;;
16506;SDS011;8366;51.020;7.642;2024-01-07T14:32:56;3.90;;;2.70;;
16506;SDS011;8366;51.020;7.642;2024-01-07T14:35:22;4.57;;;3.17;;
16506;SDS011;8366;51.020;7.642;2024-01-07T14:37:51;5.23;;;3.23;;
16506;SDS011;8366;51.020;7.642;2024-01-07T14:40:20;5.70;;;3.37;;
16506;SDS011;8366;51.020;7.642;2024-01-07T14:42:46;6.07;;;3.40;;
16506;SDS011;8366;51.020;7.642;2024-01-07T14:45:13;5.07;;;3.40;;
16506;SDS011;8366;51.020;7.642;2024-01-07T14:47:39;6.13;;;2.93;;
16506;SDS011;8366;51.020;7.642;2024-01-07T14:50:06;4.27;;;2.70;;
16506;SDS011;8366;51.020;7.642;2024-01-07T14:52:33;4.17;;;2.80;;